createdAt,value
2023-02-19T00:01:17.349Z,8.32
2023-02-19T00:03:49.012Z,7.65
2023-02-19T00:06:16.350Z,7.88
2023-02-19T00:08:43.460Z,8.93
2023-02-19T00:11:12.718Z,9.23
2023-02-19T00:13:40.538Z,7.50
2023-02-19T00:16:11.875Z,8.38
2023-02-19T00:18:39.158Z,9.60
2023-02-19T00:21:06.510Z,6.88
2023-02-19T00:23:33.860Z,7.43
2023-02-19T00:26:17.612Z,8.70
2023-02-19T00:28:46.389Z,8.77
2023-02-19T00:31:17.821Z,9.70
2023-02-19T00:33:45.424Z,6.68
2023-02-19T00:36:12.942Z,7.05
2023-02-19T00:38:41.060Z,8.90
2023-02-19T00:41:21.390Z,8.35
2023-02-19T00:43:52.649Z,7.95
2023-02-19T00:46:24.267Z,8.80
2023-02-19T00:48:52.627Z,7.50
2023-02-19T00:51:20.254Z,8.27
2023-02-19T00:53:47.425Z,10.07
2023-02-19T00:56:14.747Z,9.20
2023-02-19T00:58:42.228Z,7.47
2023-02-19T01:01:10.084Z,7.60
2023-02-19T01:03:37.641Z,7.10
2023-02-19T01:06:05.600Z,7.05
2023-02-19T01:08:33.250Z,6.43
2023-02-19T01:11:00.797Z,9.20
2023-02-19T01:13:31.326Z,7.60
2023-02-19T01:16:09.327Z,8.25
2023-02-19T01:18:36.737Z,7.95
2023-02-19T01:21:11.181Z,8.70
2023-02-19T01:23:38.654Z,8.70
2023-02-19T01:26:09.892Z,8.50
2023-02-19T01:28:37.297Z,6.85
2023-02-19T01:31:05.045Z,7.53
2023-02-19T01:33:32.467Z,6.85
2023-02-19T01:35:59.631Z,6.68
2023-02-19T01:38:26.779Z,7.57
2023-02-19T01:40:57.653Z,8.10
2023-02-19T01:43:25.074Z,6.10
2023-02-19T01:45:52.596Z,8.65
2023-02-19T01:48:21.861Z,7.72
2023-02-19T01:50:51.566Z,6.68
2023-02-19T01:53:20.675Z,7.05
2023-02-19T01:55:48.993Z,6.45
2023-02-19T01:58:17.188Z,8.48
2023-02-19T02:00:44.389Z,7.07
2023-02-19T02:03:11.796Z,8.10
2023-02-19T02:05:47.143Z,8.63
2023-02-19T02:08:34.205Z,6.85
2023-02-19T02:11:01.343Z,7.22
2023-02-19T02:13:28.885Z,7.75
2023-02-19T02:16:08.254Z,6.35
2023-02-19T02:18:40.582Z,6.75
2023-02-19T02:21:18.994Z,6.28
2023-02-19T02:24:01.629Z,6.72
2023-02-19T02:26:28.773Z,6.38
2023-02-19T02:29:14.746Z,6.90
2023-02-19T02:31:43.063Z,6.63
2023-02-19T02:34:10.190Z,6.15
2023-02-19T02:36:38.950Z,6.47
2023-02-19T02:39:08.731Z,5.38
2023-02-19T02:41:35.906Z,7.22
2023-02-19T02:44:03.018Z,6.60
2023-02-19T02:46:35.005Z,6.38
2023-02-19T02:49:11.565Z,5.93
2023-02-19T02:51:51.202Z,6.25
2023-02-19T02:54:43.198Z,7.15
2023-02-19T02:57:14.661Z,7.97
2023-02-19T02:59:42.345Z,8.40
2023-02-19T03:02:19.090Z,6.38
2023-02-19T03:05:11.240Z,7.25
2023-02-19T03:07:46.824Z,6.03
2023-02-19T03:10:28.011Z,6.55
2023-02-19T03:13:15.419Z,6.88
2023-02-19T03:16:20.032Z,5.90
2023-02-19T03:19:07.684Z,5.80
2023-02-19T03:21:36.265Z,6.47
2023-02-19T03:24:23.110Z,7.22
2023-02-19T03:26:53.941Z,7.82
2023-02-19T03:29:26.080Z,6.38
2023-02-19T03:31:55.780Z,7.22
2023-02-19T03:34:26.141Z,6.28
2023-02-19T03:36:56.390Z,7.70
2023-02-19T03:39:24.252Z,6.68
2023-02-19T03:41:54.877Z,8.45
2023-02-19T03:44:26.154Z,6.10
2023-02-19T03:47:03.558Z,7.18
2023-02-19T03:49:35.971Z,6.65
2023-02-19T03:52:15.253Z,6.35
2023-02-19T03:54:47.589Z,6.57
2023-02-19T03:57:14.918Z,6.25
2023-02-19T03:59:42.029Z,5.63
2023-02-19T04:02:12.276Z,5.97
2023-02-19T04:04:45.998Z,10.43
2023-02-19T04:07:13.294Z,7.70
2023-02-19T04:09:42.444Z,8.70
2023-02-19T04:12:10.283Z,5.60
2023-02-19T04:14:40.578Z,8.13
2023-02-19T04:17:12.003Z,5.13
2023-02-19T04:19:40.922Z,5.85
2023-02-19T04:22:08.935Z,6.38
2023-02-19T04:24:39.164Z,6.28
2023-02-19T04:27:06.968Z,5.60
2023-02-19T04:29:34.146Z,5.65
2023-02-19T04:32:01.438Z,5.90
2023-02-19T04:34:28.642Z,5.45
2023-02-19T04:36:55.838Z,5.85
2023-02-19T04:39:23.021Z,6.78
2023-02-19T04:41:50.156Z,5.82
2023-02-19T04:44:17.317Z,5.10
2023-02-19T04:46:44.508Z,6.18
2023-02-19T04:49:11.663Z,5.45
2023-02-19T04:51:39.367Z,5.80
2023-02-19T04:54:06.803Z,6.93
2023-02-19T04:56:34.053Z,5.75
2023-02-19T04:59:01.192Z,5.55
2023-02-19T05:01:28.406Z,5.32
2023-02-19T05:03:55.587Z,5.60
2023-02-19T05:06:22.702Z,5.63
2023-02-19T05:08:49.891Z,5.63
2023-02-19T05:11:17.124Z,6.25
2023-02-19T05:13:44.315Z,5.72
2023-02-19T05:16:16.223Z,5.00
2023-02-19T05:18:44.338Z,5.82
2023-02-19T05:21:12.308Z,5.03
2023-02-19T05:23:39.875Z,5.13
2023-02-19T05:26:08.212Z,7.13
2023-02-19T05:28:35.342Z,4.97
2023-02-19T05:31:05.529Z,7.68
2023-02-19T05:33:33.089Z,5.60
2023-02-19T05:36:00.292Z,5.20
2023-02-19T05:38:27.484Z,5.35
2023-02-19T05:40:54.648Z,4.88
2023-02-19T05:43:21.804Z,4.65
2023-02-19T05:45:49.070Z,5.18
2023-02-19T05:48:16.272Z,5.15
2023-02-19T05:50:43.428Z,5.22
2023-02-19T05:53:10.544Z,5.72
2023-02-19T05:55:37.733Z,5.57
2023-02-19T05:58:05.163Z,6.68
2023-02-19T06:00:33.990Z,5.15
2023-02-19T06:03:01.575Z,5.10
2023-02-19T06:05:28.713Z,4.80
2023-02-19T06:07:55.890Z,4.93
2023-02-19T06:10:23.097Z,4.93
2023-02-19T06:12:53.357Z,4.93
2023-02-19T06:15:20.819Z,5.32
2023-02-19T06:17:48.142Z,5.38
2023-02-19T06:20:15.661Z,5.07
2023-02-19T06:22:42.898Z,6.43
2023-02-19T06:25:12.578Z,5.03
2023-02-19T06:27:40.084Z,5.00
2023-02-19T06:30:07.590Z,5.30
2023-02-19T06:32:34.781Z,4.32
2023-02-19T06:35:01.959Z,4.65
2023-02-19T06:37:29.738Z,6.35
2023-02-19T06:39:56.988Z,4.70
2023-02-19T06:42:24.161Z,5.20
2023-02-19T06:44:51.342Z,13.27
2023-02-19T06:47:18.564Z,5.55
2023-02-19T06:49:45.677Z,4.85
2023-02-19T06:52:12.843Z,4.97
2023-02-19T06:54:40.101Z,5.65
2023-02-19T06:57:07.227Z,4.53
2023-02-19T06:59:34.345Z,7.03
2023-02-19T07:02:01.519Z,6.63
2023-02-19T07:04:28.799Z,8.68
2023-02-19T07:06:56.041Z,8.15
2023-02-19T07:09:25.380Z,9.68
2023-02-19T07:11:52.547Z,11.05
2023-02-19T07:14:20.857Z,12.65
2023-02-19T07:16:48.067Z,9.15
2023-02-19T07:19:15.621Z,9.00
2023-02-19T07:21:43.172Z,9.25
2023-02-19T07:24:10.923Z,7.85
2023-02-19T07:26:38.070Z,7.82
2023-02-19T07:29:05.313Z,9.73
2023-02-19T07:31:32.605Z,9.00
2023-02-19T07:33:59.806Z,11.52
2023-02-19T07:36:26.943Z,8.95
2023-02-19T07:38:55.363Z,9.45
2023-02-19T07:41:22.822Z,9.88
2023-02-19T07:43:50.052Z,13.98
2023-02-19T07:46:17.500Z,8.02
2023-02-19T07:48:44.792Z,16.75
2023-02-19T07:51:20.632Z,17.08
2023-02-19T07:53:50.193Z,12.45
2023-02-19T07:56:17.691Z,12.00
2023-02-19T07:58:46.227Z,10.82
2023-02-19T08:01:18.369Z,13.05
2023-02-19T08:03:45.867Z,12.60
2023-02-19T08:06:13.445Z,11.60
2023-02-19T08:08:41.037Z,11.18
2023-02-19T08:11:27.022Z,13.68
2023-02-19T08:13:54.394Z,10.68
2023-02-19T08:16:36.784Z,18.75
2023-02-19T08:19:08.171Z,10.93
2023-02-19T08:21:35.320Z,8.65
2023-02-19T08:24:02.626Z,12.77
2023-02-19T08:26:29.803Z,10.32
2023-02-19T08:28:58.969Z,12.70
2023-02-19T08:31:26.966Z,11.27
2023-02-19T08:33:54.114Z,12.98
2023-02-19T08:36:21.261Z,11.00
2023-02-19T08:38:48.375Z,14.48
2023-02-19T08:41:15.544Z,25.95
2023-02-19T08:43:43.009Z,16.08
2023-02-19T08:46:11.243Z,13.40
2023-02-19T08:48:39.123Z,20.73
2023-02-19T08:51:08.600Z,21.77
2023-02-19T08:53:36.971Z,18.95
2023-02-19T08:56:22.403Z,22.40
2023-02-19T08:58:49.510Z,11.50
2023-02-19T09:01:18.757Z,18.27
2023-02-19T09:03:46.236Z,11.68
2023-02-19T09:06:17.646Z,17.55
2023-02-19T09:08:44.959Z,13.02
2023-02-19T09:11:12.440Z,11.98
2023-02-19T09:13:39.803Z,14.18
2023-02-19T09:16:07.167Z,15.55
2023-02-19T09:18:34.625Z,11.80
2023-02-19T09:21:05.612Z,12.85
2023-02-19T09:23:37.437Z,13.05
2023-02-19T09:26:08.524Z,10.05
2023-02-19T09:28:36.109Z,13.02
2023-02-19T09:31:06.717Z,13.77
2023-02-19T09:33:34.067Z,17.40
2023-02-19T09:36:01.676Z,10.35
2023-02-19T09:38:30.265Z,13.88
2023-02-19T09:40:58.062Z,13.02
2023-02-19T09:43:27.250Z,13.43
2023-02-19T09:46:01.686Z,9.73
2023-02-19T09:48:29.003Z,10.95
2023-02-19T09:50:57.558Z,11.15
2023-02-19T09:53:27.371Z,12.13
2023-02-19T09:55:54.978Z,8.02
2023-02-19T09:58:22.246Z,11.75
2023-02-19T10:00:50.267Z,10.88
2023-02-19T10:03:23.564Z,11.50
2023-02-19T10:05:50.729Z,10.02
2023-02-19T10:08:19.676Z,8.45
2023-02-19T10:10:46.922Z,11.10
2023-02-19T10:13:19.461Z,12.10
2023-02-19T10:15:51.352Z,13.75
2023-02-19T10:18:21.818Z,8.52
2023-02-19T10:20:50.159Z,8.63
2023-02-19T10:23:17.553Z,9.13
2023-02-19T10:25:54.388Z,15.63
2023-02-19T10:28:23.722Z,9.82
2023-02-19T10:30:54.754Z,9.43
2023-02-19T10:33:22.335Z,7.75
2023-02-19T10:35:54.616Z,13.57
2023-02-19T10:38:23.831Z,9.18
2023-02-19T10:40:53.208Z,11.18
2023-02-19T10:43:25.696Z,12.68
2023-02-19T10:45:53.074Z,10.30
2023-02-19T10:48:24.928Z,15.10
2023-02-19T10:50:58.177Z,12.20
2023-02-19T10:53:40.643Z,9.38
2023-02-19T10:56:08.654Z,10.38
2023-02-19T10:58:38.079Z,11.77
2023-02-19T11:01:14.362Z,13.00
2023-02-19T11:03:42.287Z,10.48
2023-02-19T11:06:11.236Z,13.60
2023-02-19T11:08:44.525Z,14.80
2023-02-19T11:11:21.942Z,15.65
2023-02-19T11:13:49.128Z,14.20
2023-02-19T11:16:16.419Z,15.52
2023-02-19T11:18:45.153Z,9.43
2023-02-19T11:21:33.487Z,14.25
2023-02-19T11:24:03.106Z,13.90
2023-02-19T11:26:32.778Z,12.73
2023-02-19T11:29:01.135Z,7.75
2023-02-19T11:31:28.749Z,9.20
2023-02-19T11:34:00.432Z,12.18
2023-02-19T11:36:29.970Z,16.65
2023-02-19T11:38:58.655Z,13.30
2023-02-19T11:41:25.758Z,12.82
2023-02-19T11:43:52.837Z,13.18
2023-02-19T11:46:25.526Z,10.55
2023-02-19T11:48:54.896Z,13.52
2023-02-19T11:51:57.377Z,16.80
2023-02-19T11:54:36.812Z,11.45
2023-02-19T11:57:16.549Z,12.18
2023-02-19T11:59:43.699Z,18.38
2023-02-19T12:02:28.107Z,17.73
2023-02-19T12:04:58.194Z,18.25
2023-02-19T12:07:49.355Z,11.35
2023-02-19T12:10:16.682Z,13.68
2023-02-19T12:12:49.872Z,20.70
2023-02-19T12:15:46.720Z,24.70
2023-02-19T12:18:33.939Z,18.05
2023-02-19T12:21:21.807Z,23.27
2023-02-19T12:23:54.915Z,19.02
2023-02-19T12:26:28.889Z,18.98
2023-02-19T12:29:02.452Z,23.20
2023-02-19T12:31:33.028Z,26.52
2023-02-19T12:34:18.884Z,20.98
2023-02-19T12:37:09.388Z,20.52
2023-02-19T12:39:45.434Z,17.95
2023-02-19T12:42:15.461Z,22.27
2023-02-19T12:44:52.835Z,17.77
2023-02-19T12:47:21.676Z,25.88
2023-02-19T12:50:09.059Z,20.85
2023-02-19T12:52:40.970Z,15.85
2023-02-19T12:55:31.674Z,15.75
2023-02-19T12:58:01.435Z,29.38
2023-02-19T13:00:40.818Z,47.70
2023-02-19T13:03:28.255Z,41.28
2023-02-19T13:06:04.468Z,152.48
2023-02-19T13:08:34.820Z,117.18
2023-02-19T13:11:10.127Z,134.55
2023-02-19T13:13:42.355Z,130.13
2023-02-19T13:16:15.021Z,119.75
2023-02-19T13:18:46.078Z,105.95
2023-02-19T13:21:35.304Z,101.53
2023-02-19T13:24:07.393Z,92.80
2023-02-19T13:26:57.578Z,87.70
2023-02-19T13:29:43.336Z,98.00
2023-02-19T13:32:28.684Z,131.52
2023-02-19T13:35:19.126Z,153.27
2023-02-19T13:37:46.731Z,267.33
2023-02-19T13:40:25.975Z,267.58
2023-02-19T13:42:54.866Z,221.45
2023-02-19T13:45:48.391Z,201.60
2023-02-19T13:48:25.475Z,191.43
2023-02-19T13:51:12.882Z,188.20
2023-02-19T13:53:45.920Z,253.10
2023-02-19T13:56:33.824Z,275.42
2023-02-19T13:59:12.954Z,287.85
2023-02-19T14:01:52.096Z,230.25
2023-02-19T14:04:24.027Z,233.55
2023-02-19T14:07:06.359Z,213.38
2023-02-19T14:09:39.442Z,220.70
2023-02-19T14:12:06.666Z,217.15
2023-02-19T14:14:41.333Z,208.65
2023-02-19T14:17:17.525Z,273.75
2023-02-19T14:19:49.862Z,375.23
2023-02-19T14:22:35.768Z,376.77
2023-02-19T14:25:04.863Z,348.25
2023-02-19T14:27:32.229Z,334.75
2023-02-19T14:29:59.561Z,327.08
2023-02-19T14:32:26.876Z,313.40
2023-02-19T14:34:54.013Z,311.63
2023-02-19T14:37:22.286Z,296.70
2023-02-19T14:39:52.164Z,315.45
2023-02-19T14:42:23.497Z,327.10
2023-02-19T14:44:57.153Z,361.23
2023-02-19T14:47:25.492Z,374.45
2023-02-19T14:50:03.705Z,343.00
2023-02-19T14:52:36.609Z,328.08
2023-02-19T14:55:06.621Z,335.25
2023-02-19T14:57:38.888Z,317.42
2023-02-19T15:00:22.388Z,309.27
2023-02-19T15:02:51.184Z,312.50
2023-02-19T15:05:19.142Z,301.25
2023-02-19T15:07:46.425Z,290.48
2023-02-19T15:10:15.109Z,301.70
2023-02-19T15:12:47.198Z,294.40
2023-02-19T15:15:34.975Z,287.00
2023-02-19T15:18:02.470Z,270.50
2023-02-19T15:20:31.773Z,268.13
2023-02-19T15:23:00.054Z,270.90
2023-02-19T15:25:32.971Z,256.52
2023-02-19T15:28:18.693Z,258.10
2023-02-19T15:30:45.827Z,246.85
2023-02-19T15:33:17.748Z,261.75
2023-02-19T15:35:49.472Z,250.68
2023-02-19T15:38:16.780Z,228.02
2023-02-19T15:40:47.772Z,234.30
2023-02-19T15:43:33.770Z,225.30
2023-02-19T15:46:07.359Z,211.75
2023-02-19T15:48:40.892Z,222.18
2023-02-19T15:51:12.222Z,198.77
2023-02-19T15:53:44.065Z,217.27
2023-02-19T15:56:17.244Z,214.13
2023-02-19T15:58:44.454Z,215.68
2023-02-19T16:01:17.337Z,211.40
2023-02-19T16:03:44.713Z,194.73
2023-02-19T16:06:16.601Z,201.75
2023-02-19T16:08:44.970Z,194.07
2023-02-19T16:11:24.208Z,188.48
2023-02-19T16:13:52.137Z,194.07
2023-02-19T16:16:19.270Z,183.52
2023-02-19T16:18:47.618Z,192.35
2023-02-19T16:21:16.480Z,181.65
2023-02-19T16:23:44.670Z,174.82
2023-02-19T16:26:13.147Z,174.98
2023-02-19T16:28:41.662Z,170.02
2023-02-19T16:31:10.835Z,169.82
2023-02-19T16:33:38.113Z,170.93
2023-02-19T16:36:26.532Z,166.15
2023-02-19T16:39:00.939Z,162.48
2023-02-19T16:41:28.140Z,160.07
2023-02-19T16:43:55.273Z,150.85
2023-02-19T16:46:22.463Z,153.20
2023-02-19T16:48:49.994Z,153.15
2023-02-19T16:51:21.006Z,154.10
2023-02-19T16:53:48.216Z,159.25
2023-02-19T16:56:18.547Z,152.38
2023-02-19T16:58:45.751Z,151.25
2023-02-19T17:01:13.476Z,152.80
2023-02-19T17:03:40.946Z,150.25
2023-02-19T17:06:08.555Z,142.15
2023-02-19T17:08:37.541Z,146.57
2023-02-19T17:11:11.295Z,144.93
2023-02-19T17:13:38.752Z,137.27
2023-02-19T17:16:06.208Z,138.80
2023-02-19T17:18:33.577Z,132.57
2023-02-19T17:21:12.950Z,134.85
2023-02-19T17:23:40.419Z,133.73
2023-02-19T17:26:07.556Z,132.57
2023-02-19T17:28:34.714Z,127.72
2023-02-19T17:31:01.823Z,125.57
2023-02-19T17:33:28.983Z,123.55
2023-02-19T17:35:56.106Z,120.68
2023-02-19T17:38:23.286Z,118.97
2023-02-19T17:40:50.494Z,127.45
2023-02-19T17:43:17.685Z,120.45
2023-02-19T17:45:44.949Z,109.10
2023-02-19T17:48:15.447Z,112.18
2023-02-19T17:50:42.620Z,107.40
2023-02-19T17:53:10.082Z,117.25
2023-02-19T17:55:37.234Z,114.85
2023-02-19T17:58:04.432Z,111.93
2023-02-19T18:00:32.274Z,107.03
2023-02-19T18:02:59.438Z,108.40
2023-02-19T18:05:26.642Z,104.20
2023-02-19T18:07:53.835Z,103.70
2023-02-19T18:10:23.350Z,106.38
2023-02-19T18:12:50.704Z,103.40
2023-02-19T18:15:19.236Z,103.13
2023-02-19T18:17:46.816Z,100.80
2023-02-19T18:20:18.412Z,101.70
2023-02-19T18:22:45.585Z,99.30
2023-02-19T18:25:12.996Z,96.70
2023-02-19T18:27:40.126Z,97.18
2023-02-19T18:30:07.674Z,95.03
2023-02-19T18:32:34.898Z,96.65
2023-02-19T18:35:02.082Z,93.20
2023-02-19T18:37:33.911Z,92.93
2023-02-19T18:40:01.175Z,92.10
2023-02-19T18:42:28.363Z,91.15
2023-02-19T18:44:56.066Z,91.80
2023-02-19T18:47:25.326Z,88.43
2023-02-19T18:49:57.335Z,87.95
2023-02-19T18:52:25.789Z,85.90
2023-02-19T18:54:54.974Z,87.38
2023-02-19T18:57:23.067Z,87.68
2023-02-19T18:59:50.403Z,85.25
2023-02-19T19:02:17.905Z,84.95
2023-02-19T19:04:48.836Z,86.68
2023-02-19T19:07:16.062Z,84.15
2023-02-19T19:09:43.233Z,82.60
2023-02-19T19:12:10.429Z,81.93
2023-02-19T19:14:37.619Z,81.60
2023-02-19T19:17:05.125Z,78.40
2023-02-19T19:19:32.364Z,80.03
2023-02-19T19:21:59.528Z,79.38
2023-02-19T19:24:29.143Z,75.60
2023-02-19T19:26:56.261Z,75.75
2023-02-19T19:29:23.609Z,73.10
2023-02-19T19:31:51.246Z,73.07
2023-02-19T19:34:18.682Z,75.68
2023-02-19T19:36:46.259Z,72.50
2023-02-19T19:39:13.884Z,70.03
2023-02-19T19:41:41.122Z,74.50
2023-02-19T19:44:08.906Z,76.47
2023-02-19T19:46:36.247Z,76.45
2023-02-19T19:49:04.422Z,72.57
2023-02-19T19:51:32.483Z,68.53
2023-02-19T19:54:00.937Z,71.55
2023-02-19T19:56:28.124Z,72.15
2023-02-19T19:58:55.285Z,71.53
2023-02-19T20:01:23.280Z,73.38
2023-02-19T20:03:51.190Z,70.57
2023-02-19T20:06:28.981Z,71.90
2023-02-19T20:08:56.509Z,73.60
2023-02-19T20:11:24.119Z,71.22
2023-02-19T20:13:51.259Z,72.72
2023-02-19T20:16:24.063Z,71.95
2023-02-19T20:18:51.195Z,71.65
2023-02-19T20:21:18.345Z,72.70
2023-02-19T20:23:45.466Z,68.97
2023-02-19T20:26:12.669Z,67.68
2023-02-19T20:28:45.080Z,66.07
2023-02-19T20:31:12.656Z,66.95
2023-02-19T20:33:39.939Z,65.50
2023-02-19T20:36:07.419Z,64.80
2023-02-19T20:38:34.555Z,61.65
2023-02-19T20:41:01.699Z,62.13
2023-02-19T20:43:28.864Z,62.38
2023-02-19T20:45:56.029Z,60.17
2023-02-19T20:48:23.252Z,61.85
2023-02-19T20:50:50.391Z,59.58
2023-02-19T20:53:17.546Z,60.85
2023-02-19T20:55:44.730Z,58.03
2023-02-19T20:58:11.976Z,60.03
2023-02-19T21:00:39.122Z,58.00
2023-02-19T21:03:08.950Z,56.35
2023-02-19T21:05:37.067Z,57.58
2023-02-19T21:08:04.570Z,56.53
2023-02-19T21:10:31.973Z,56.70
2023-02-19T21:12:59.148Z,56.28
2023-02-19T21:15:26.259Z,54.67
2023-02-19T21:17:53.422Z,53.65
2023-02-19T21:20:20.874Z,54.78
2023-02-19T21:22:48.044Z,52.58
2023-02-19T21:25:15.238Z,54.92
2023-02-19T21:27:42.383Z,50.28
2023-02-19T21:30:09.753Z,49.80
2023-02-19T21:32:36.944Z,49.97
2023-02-19T21:35:04.171Z,51.20
2023-02-19T21:37:31.312Z,49.05
2023-02-19T21:40:00.315Z,47.65
2023-02-19T21:42:27.671Z,51.05
2023-02-19T21:44:54.809Z,48.38
2023-02-19T21:47:21.921Z,47.40
2023-02-19T21:49:49.126Z,45.10
2023-02-19T21:52:16.444Z,44.53
2023-02-19T21:54:43.990Z,45.33
2023-02-19T21:57:11.216Z,43.05
2023-02-19T21:59:39.610Z,42.00
2023-02-19T22:02:07.068Z,47.15
2023-02-19T22:04:34.229Z,43.97
2023-02-19T22:07:01.363Z,45.92
2023-02-19T22:09:28.563Z,50.90
2023-02-19T22:11:55.712Z,44.53
2023-02-19T22:14:23.015Z,43.35
2023-02-19T22:16:50.234Z,44.80
2023-02-19T22:19:17.389Z,43.22
2023-02-19T22:21:45.244Z,42.78
2023-02-19T22:24:19.515Z,43.80
2023-02-19T22:26:46.899Z,40.35
2023-02-19T22:29:14.980Z,39.88
2023-02-19T22:31:42.361Z,43.00
2023-02-19T22:34:09.775Z,39.50
2023-02-19T22:36:40.507Z,39.70
2023-02-19T22:39:08.778Z,41.63
2023-02-19T22:41:35.984Z,40.38
2023-02-19T22:44:03.148Z,38.97
2023-02-19T22:46:31.235Z,40.47
2023-02-19T22:48:59.166Z,39.47
2023-02-19T22:51:26.617Z,35.13
2023-02-19T22:53:55.321Z,39.38
2023-02-19T22:56:25.380Z,38.60
2023-02-19T22:58:53.054Z,38.75
2023-02-19T23:01:20.622Z,37.17
2023-02-19T23:03:49.025Z,37.40
2023-02-19T23:06:17.177Z,37.25
2023-02-19T23:08:44.453Z,38.45
2023-02-19T23:11:13.202Z,37.03
2023-02-19T23:13:43.513Z,36.30
2023-02-19T23:16:11.214Z,36.75
2023-02-19T23:18:38.919Z,35.08
2023-02-19T23:21:06.067Z,35.83
2023-02-19T23:23:33.358Z,35.22
2023-02-19T23:26:00.489Z,35.22
2023-02-19T23:28:27.660Z,34.42
2023-02-19T23:30:54.944Z,34.15
2023-02-19T23:33:22.142Z,34.17
2023-02-19T23:35:49.267Z,34.53
2023-02-19T23:38:16.386Z,32.17
2023-02-19T23:40:43.725Z,33.70
2023-02-19T23:43:10.911Z,32.88
2023-02-19T23:45:38.076Z,32.13
2023-02-19T23:48:05.260Z,34.17
2023-02-19T23:50:32.440Z,31.70
2023-02-19T23:52:59.706Z,33.28
2023-02-19T23:55:27.145Z,30.88
2023-02-19T23:57:54.329Z,32.70
